Time;durP1;ratioP1;P1;durP2;ratioP2;P2;SDS_P1;SDS_P2;PMS_P1;PMS_P2;Temp;Humidity;BMP_temperature;BMP_pressure;BME280_temperature;BME280_humidity;BME280_pressure;Samples;Min_cycle;Max_cycle;Signal;HPM_P1;HPM_P2
2022/01/12 00:00:16;;;;;;;16.15;9.40;;;;;;;-148.81;100.00;67990.72;2093799;28;20142;-61
2022/01/12 00:01:23;;;;;;;15.82;9.38;;;;;;;-148.81;100.00;67990.72;2094351;28;20041;-62
2022/01/12 00:02:27;;;;;;;18.52;10.00;;;;;;;-148.81;100.00;67990.72;2094832;28;20036;-62
2022/01/12 00:03:34;;;;;;;15.75;9.32;;;;;;;-148.81;100.00;67990.72;2095714;28;20052;-61
2022/01/12 00:04:39;;;;;;;18.42;9.45;;;;;;;-148.81;100.00;67990.72;2099656;28;20066;-62
2022/01/12 00:05:44;;;;;;;13.80;9.05;;;;;;;-148.81;100.00;67990.72;2103969;28;20067;-61
2022/01/12 00:06:49;;;;;;;19.23;9.45;;;;;;;-148.81;100.00;67990.72;2103765;28;20051;-62
2022/01/12 00:07:52;;;;;;;15.10;8.68;;;;;;;-148.81;100.00;67990.72;2103361;28;20749;-61
2022/01/12 00:08:59;;;;;;;16.02;9.35;;;;;;;-148.81;100.00;67990.72;2105014;28;20048;-61
2022/01/12 00:10:02;;;;;;;16.25;8.70;;;;;;;-148.81;100.00;67990.72;2105021;28;20051;-61
2022/01/12 00:11:09;;;;;;;17.17;9.00;;;;;;;-148.81;100.00;67990.72;2104891;28;20056;-62
2022/01/12 00:12:12;;;;;;;15.70;9.02;;;;;;;-148.81;100.00;67990.72;2104639;28;20072;-62
2022/01/12 00:13:19;;;;;;;16.20;8.93;;;;;;;-148.81;100.00;67990.72;2104311;28;20048;-62
2022/01/12 00:14:27;;;;;;;16.77;9.35;;;;;;;-148.81;100.00;67990.72;2104702;28;20059;-62
2022/01/12 00:15:33;;;;;;;16.52;9.50;;;;;;;-148.81;100.00;67990.72;2104452;28;20495;-62
2022/01/12 00:16:39;;;;;;;15.60;9.23;;;;;;;-148.81;100.00;67990.72;2104528;28;20064;-62
2022/01/12 00:17:42;;;;;;;14.07;9.30;;;;;;;-148.81;100.00;67990.72;2104728;28;20048;-63
2022/01/12 00:20:08;;;;;;;16.00;9.17;;;;;;;-148.81;100.00;67990.72;2103298;28;20048;-62
2022/01/12 00:21:15;;;;;;;15.65;9.48;;;;;;;-148.81;100.00;67990.72;2104551;28;20324;-62
2022/01/12 00:22:21;;;;;;;16.40;8.75;;;;;;;-148.81;100.00;67990.72;2104178;28;20047;-62
2022/01/12 00:23:25;;;;;;;15.40;8.70;;;;;;;-148.81;100.00;67990.72;2103431;28;20056;-62
2022/01/12 00:24:41;;;;;;;17.17;9.40;;;;;;;-148.81;100.00;67990.72;2096783;28;20056;-61
2022/01/12 00:25:59;;;;;;;14.40;8.43;;;;;;;-148.81;100.00;67990.72;2096138;28;20060;-63
2022/01/12 00:33:48;;;;;;;17.45;9.15;;;;;;;-148.81;100.00;67990.72;2096011;28;20065;-62
2022/01/12 00:34:54;;;;;;;14.35;8.85;;;;;;;-148.81;100.00;67990.72;2095461;28;20076;-62
2022/01/12 00:35:58;;;;;;;14.95;8.80;;;;;;;-148.81;100.00;67990.72;2095484;28;20044;-62
2022/01/12 00:37:07;;;;;;;17.20;8.82;;;;;;;-148.81;100.00;67990.72;2096019;28;20048;-62
2022/01/12 00:38:12;;;;;;;16.30;8.90;;;;;;;-148.81;100.00;67990.72;2095468;28;20056;-63
2022/01/12 00:39:17;;;;;;;13.85;8.25;;;;;;;-148.81;100.00;67990.72;2095923;28;20048;-62
2022/01/12 00:40:21;;;;;;;14.23;8.70;;;;;;;-148.81;100.00;67990.72;2087876;28;20747;-62
2022/01/12 00:41:26;;;;;;;36.65;8.30;;;;;;;-148.81;100.00;67990.72;2087542;28;20048;-62
2022/01/12 00:42:30;;;;;;;15.60;8.30;;;;;;;-148.81;100.00;67990.72;2095199;28;20550;-62
2022/01/12 00:43:40;;;;;;;14.40;8.73;;;;;;;-148.81;100.00;67990.72;2097684;28;20052;-62
2022/01/12 00:44:46;;;;;;;15.93;8.45;;;;;;;-148.81;100.00;67990.72;2103458;28;20055;-62
2022/01/12 00:45:50;;;;;;;12.73;8.18;;;;;;;-148.81;100.00;67990.72;2103391;28;20044;-62
2022/01/12 00:46:58;;;;;;;16.48;8.68;;;;;;;-148.81;100.00;67990.72;2103478;28;20044;-62
2022/01/12 00:48:02;;;;;;;15.05;9.02;;;;;;;-148.81;100.00;67990.72;2104576;28;20044;-62
2022/01/12 00:49:08;;;;;;;15.25;8.20;;;;;;;-148.81;100.00;67990.72;2104642;28;20066;-62
2022/01/12 00:50:12;;;;;;;14.85;8.52;;;;;;;-148.81;100.00;67990.72;2103774;28;20052;-62
2022/01/12 00:51:16;;;;;;;20.13;8.55;;;;;;;-148.81;100.00;67990.72;2095540;28;20108;-62
2022/01/12 00:52:20;;;;;;;13.35;8.25;;;;;;;-148.81;100.00;67990.72;2103685;28;20047;-62
2022/01/12 00:53:25;;;;;;;13.73;8.43;;;;;;;-148.81;100.00;67990.72;2104072;28;20051;-62
2022/01/12 00:54:28;;;;;;;13.18;8.27;;;;;;;-148.81;100.00;67990.72;2104144;28;20048;-62
2022/01/12 00:55:34;;;;;;;14.30;8.00;;;;;;;-148.81;100.00;67990.72;2104250;28;20044;-61
2022/01/12 00:56:37;;;;;;;24.85;8.40;;;;;;;-148.81;100.00;67990.72;2104323;28;20048;-62
2022/01/12 00:57:44;;;;;;;19.35;8.48;;;;;;;-148.81;100.00;67990.72;2103591;28;20056;-63
2022/01/12 00:58:50;;;;;;;13.60;8.05;;;;;;;-148.81;100.00;67990.72;2096467;28;20051;-62
2022/01/12 00:59:56;;;;;;;14.65;8.20;;;;;;;-148.81;100.00;67990.72;2096160;28;20052;-62
2022/01/12 01:00:58;;;;;;;14.80;8.27;;;;;;;-148.81;100.00;67990.72;2095726;28;20049;-63
2022/01/12 01:02:03;;;;;;;11.20;7.18;;;;;;;-148.81;100.00;67990.72;2095389;28;20052;-63
2022/01/12 01:03:08;;;;;;;15.77;8.02;;;;;;;-148.81;100.00;67990.72;2095739;28;20052;-63
2022/01/12 01:04:14;;;;;;;13.18;7.70;;;;;;;-148.81;100.00;67990.72;2095211;28;20052;-64
2022/01/12 01:05:20;;;;;;;14.75;8.00;;;;;;;-148.81;100.00;67990.72;2103425;28;20466;-64
2022/01/12 01:06:26;;;;;;;14.63;7.82;;;;;;;-148.81;100.00;67990.72;2104272;28;20051;-64
2022/01/12 01:07:28;;;;;;;12.50;7.68;;;;;;;-148.81;100.00;67990.72;2103766;28;20051;-64
2022/01/12 01:08:33;;;;;;;15.10;8.40;;;;;;;-148.81;100.00;67990.72;2103131;28;20056;-64
2022/01/12 01:09:42;;;;;;;14.10;7.85;;;;;;;-148.81;100.00;67990.72;2103583;28;20079;-64
2022/01/12 01:10:48;;;;;;;12.57;8.07;;;;;;;-148.81;100.00;67990.72;2103643;28;20784;-63
2022/01/12 01:11:56;;;;;;;12.48;7.32;;;;;;;-148.81;100.00;67990.72;2095911;28;20048;-65
2022/01/12 01:14:36;;;;;;;12.45;7.70;;;;;;;-148.81;100.00;67990.72;2096243;28;20056;-62
2022/01/12 01:16:02;;;;;;;13.05;7.70;;;;;;;-148.81;100.00;67990.72;2103944;28;20051;-63
2022/01/12 01:25:28;;;;;;;13.50;7.50;;;;;;;-148.81;100.00;67990.72;2104011;28;20059;-65
2022/01/12 01:25:32;;;;;;;11.63;6.95;;;;;;;-148.81;100.00;67990.72;2095640;28;20041;-63
2022/01/12 01:26:35;;;;;;;11.35;7.32;;;;;;;-148.81;100.00;67990.72;2095659;28;20047;-63
2022/01/12 01:27:40;;;;;;;11.23;6.90;;;;;;;-148.81;100.00;67990.72;2095045;28;20053;-64
2022/01/12 01:28:44;;;;;;;11.70;7.50;;;;;;;-148.81;100.00;67990.72;2095440;28;20057;-64
2022/01/12 01:29:53;;;;;;;12.93;7.20;;;;;;;-148.81;100.00;67990.72;2095553;28;20641;-63
2022/01/12 01:30:58;;;;;;;11.45;7.10;;;;;;;-148.81;100.00;67990.72;2094512;28;20048;-63
2022/01/12 01:32:09;;;;;;;12.27;7.63;;;;;;;-148.81;100.00;67990.72;2095787;28;20866;-64
2022/01/12 01:33:16;;;;;;;12.45;7.35;;;;;;;-148.81;100.00;67990.72;2103234;28;20056;-63
2022/01/12 01:34:21;;;;;;;10.43;6.97;;;;;;;-148.81;100.00;67990.72;2094453;28;20075;-64
2022/01/12 01:35:29;;;;;;;12.63;6.90;;;;;;;-148.81;100.00;67990.72;2087331;28;20049;-63
2022/01/12 01:36:36;;;;;;;11.45;7.38;;;;;;;-148.81;100.00;67990.72;2095286;28;20052;-64
2022/01/12 01:37:41;;;;;;;10.82;6.90;;;;;;;-148.81;100.00;67990.72;2095252;28;20735;-64
2022/01/12 01:38:46;;;;;;;12.43;7.28;;;;;;;-148.81;100.00;67990.72;2095762;28;20067;-64
2022/01/12 01:39:51;;;;;;;12.25;7.13;;;;;;;-148.81;100.00;67990.72;2095960;28;20047;-64
2022/01/12 01:40:57;;;;;;;13.60;7.47;;;;;;;-148.81;100.00;67990.72;2094923;28;20507;-63
2022/01/12 01:42:12;;;;;;;11.10;6.78;;;;;;;-148.81;100.00;67990.72;2095020;28;20049;-63
2022/01/12 01:43:23;;;;;;;11.30;7.10;;;;;;;-148.81;100.00;67990.72;2097813;28;20492;-63
2022/01/12 01:53:52;;;;;;;11.13;6.57;;;;;;;-148.81;100.00;67990.72;2088919;28;20720;-64
2022/01/12 01:54:55;;;;;;;9.40;6.45;;;;;;;-148.81;100.00;67990.72;2095457;28;20043;-64
2022/01/12 01:56:04;;;;;;;12.02;6.97;;;;;;;-148.81;100.00;67990.72;2103617;28;20056;-64
2022/01/12 01:57:08;;;;;;;9.90;6.38;;;;;;;-148.81;100.00;67990.72;2095982;28;20055;-64
2022/01/12 01:58:15;;;;;;;10.55;6.68;;;;;;;-148.81;100.00;67990.72;2095050;28;20044;-64
2022/01/12 01:59:22;;;;;;;11.57;6.85;;;;;;;-148.81;100.00;67990.72;2096740;28;20067;-64
2022/01/12 02:00:32;;;;;;;10.57;6.22;;;;;;;-148.81;100.00;67990.72;2102999;28;20059;-64
2022/01/12 02:01:42;;;;;;;10.05;6.63;;;;;;;-148.81;100.00;67990.72;2096817;28;20051;-64
2022/01/12 02:02:48;;;;;;;10.80;6.82;;;;;;;-148.81;100.00;67990.72;2095672;28;20063;-64
2022/01/12 02:03:59;;;;;;;11.82;7.20;;;;;;;-148.81;100.00;67990.72;2096138;28;20052;-63
2022/01/12 02:05:05;;;;;;;12.10;6.40;;;;;;;-148.81;100.00;67990.72;2094946;28;20610;-64
2022/01/12 02:06:13;;;;;;;13.15;6.53;;;;;;;-148.81;100.00;67990.72;2095941;28;20053;-64
2022/01/12 02:07:20;;;;;;;14.07;6.65;;;;;;;-148.81;100.00;67990.72;2096309;28;20710;-63
2022/01/12 02:08:28;;;;;;;11.95;6.82;;;;;;;-148.81;100.00;67990.72;2095669;28;20056;-63
2022/01/12 02:09:40;;;;;;;11.40;6.28;;;;;;;-148.81;100.00;67990.72;2096361;28;20044;-63
2022/01/12 02:10:55;;;;;;;9.77;6.32;;;;;;;-148.81;100.00;67990.72;2095597;28;20780;-63
2022/01/12 02:11:59;;;;;;;11.45;6.55;;;;;;;-148.81;100.00;67990.72;2095441;28;20041;-63
2022/01/12 02:13:06;;;;;;;10.20;6.65;;;;;;;-148.81;100.00;67990.72;2095214;28;20052;-63
2022/01/12 02:14:10;;;;;;;10.82;6.97;;;;;;;-148.81;100.00;67990.72;2095511;28;20048;-63
2022/01/12 02:15:20;;;;;;;11.65;6.75;;;;;;;-148.81;100.00;67990.72;2095642;28;20048;-63
2022/01/12 02:16:32;;;;;;;10.00;6.57;;;;;;;-148.81;100.00;67990.72;2103346;28;20123;-63
2022/01/12 02:17:54;;;;;;;11.70;7.18;;;;;;;-148.81;100.00;67990.72;2102777;28;20048;-63
2022/01/12 02:19:12;;;;;;;10.75;6.55;;;;;;;-148.81;100.00;67990.72;2097342;28;20060;-64
2022/01/12 02:35:07;;;;;;;10.55;6.20;;;;;;;-148.81;100.00;67990.72;2103356;28;20081;-66
2022/01/12 02:35:46;;;;;;;9.90;6.47;;;;;;;-148.81;100.00;67990.72;2094599;28;20057;-64
2022/01/12 02:36:58;;;;;;;9.63;6.03;;;;;;;-148.81;100.00;67990.72;2095272;28;20052;-64
2022/01/12 02:39:54;;;;;;;10.30;6.35;;;;;;;-148.81;100.00;67990.72;2069477;28;20061;-64
2022/01/12 02:40:56;;;;;;;10.75;6.70;;;;;;;-148.81;100.00;67990.72;2061731;28;20518;-65
2022/01/12 02:42:01;;;;;;;11.40;6.53;;;;;;;-148.81;100.00;67990.72;2073939;28;20045;-65
2022/01/12 02:43:12;;;;;;;10.20;6.82;;;;;;;-148.81;100.00;67990.72;2102750;28;20048;-64
2022/01/12 02:51:12;;;;;;;10.65;5.85;;;;;;;-148.81;100.00;67990.72;2103727;28;20048;-66
2022/01/12 02:53:42;;;;;;;8.77;5.85;;;;;;;-148.81;100.00;67990.72;2102937;28;20063;-66
2022/01/12 02:54:49;;;;;;;10.35;6.57;;;;;;;-148.81;100.00;67990.72;2095220;28;20060;-66
2022/01/12 02:55:54;;;;;;;8.75;6.05;;;;;;;-148.81;100.00;67990.72;2103161;28;20435;-64
2022/01/12 02:57:03;;;;;;;;;;;;;;;-148.81;100.00;67990.72;2095585;28;20103;-65
2022/01/12 02:58:06;;;;;;;8.27;5.68;;;;;;;-148.81;100.00;67990.72;2095334;28;19925;-65
2022/01/12 02:59:11;;;;;;;9.32;5.90;;;;;;;-148.81;100.00;67990.72;2103144;28;20051;-65
2022/01/12 03:00:17;;;;;;;8.32;5.50;;;;;;;-148.81;100.00;67990.72;2095649;28;20067;-65
2022/01/12 03:02:51;;;;;;;9.45;6.22;;;;;;;-148.81;100.00;67990.72;2102971;28;20032;-65
2022/01/12 03:03:55;;;;;;;12.25;6.60;;;;;;;-148.81;100.00;67990.72;2103703;28;20066;-66
2022/01/12 03:05:17;;;;;;;9.95;6.47;;;;;;;-148.81;100.00;67990.72;2102604;28;20044;-65
2022/01/12 03:06:24;;;;;;;9.80;5.90;;;;;;;-148.81;100.00;67990.72;2103215;28;20591;-65
2022/01/12 03:07:37;;;;;;;10.40;6.32;;;;;;;-148.81;100.00;67990.72;2102883;28;20075;-65
2022/01/12 03:08:40;;;;;;;9.98;6.13;;;;;;;-148.81;100.00;67990.72;2102081;28;20048;-63
2022/01/12 03:09:44;;;;;;;10.25;6.63;;;;;;;-148.81;100.00;67990.72;2095111;28;20044;-64
2022/01/12 03:10:47;;;;;;;11.07;6.68;;;;;;;-148.81;100.00;67990.72;2094968;28;20048;-63
2022/01/12 03:11:52;;;;;;;10.82;6.72;;;;;;;-148.81;100.00;67990.72;2094624;28;20538;-64
2022/01/12 03:12:56;;;;;;;10.05;6.60;;;;;;;-148.81;100.00;67990.72;2102758;28;20047;-65
2022/01/12 03:14:00;;;;;;;8.70;6.32;;;;;;;-148.81;100.00;67990.72;2103414;28;20059;-64
2022/01/12 03:15:07;;;;;;;8.95;6.35;;;;;;;-148.81;100.00;67990.72;2103307;28;20435;-65
2022/01/12 03:16:15;;;;;;;9.77;6.22;;;;;;;-148.81;100.00;67990.72;2095500;28;20048;-63
2022/01/12 03:17:20;;;;;;;9.30;5.80;;;;;;;-148.81;100.00;67990.72;2095846;28;20424;-66
2022/01/12 03:18:24;;;;;;;9.90;6.00;;;;;;;-148.81;100.00;67990.72;2094968;28;20041;-65
2022/01/12 03:19:31;;;;;;;10.10;6.53;;;;;;;-148.81;100.00;67990.72;2095436;28;20587;-66
2022/01/12 03:20:38;;;;;;;9.63;6.18;;;;;;;-148.81;100.00;67990.72;2094647;28;20853;-65
2022/01/12 03:21:45;;;;;;;8.88;6.25;;;;;;;-148.81;100.00;67990.72;2095468;28;20045;-65
2022/01/12 03:22:52;;;;;;;10.23;6.20;;;;;;;-148.81;100.00;67990.72;2095414;28;20036;-65
2022/01/12 03:23:56;;;;;;;9.07;6.43;;;;;;;-148.81;100.00;67990.72;2094739;28;20048;-66
2022/01/12 03:25:00;;;;;;;10.40;6.80;;;;;;;-148.81;100.00;67990.72;2095238;28;20071;-66
2022/01/12 03:26:05;;;;;;;11.93;6.18;;;;;;;-148.81;100.00;67990.72;2102627;28;20629;-65
2022/01/12 03:27:13;;;;;;;9.43;5.90;;;;;;;-148.81;100.00;67990.72;2102501;28;20064;-64
2022/01/12 03:28:19;;;;;;;9.02;5.90;;;;;;;-148.81;100.00;67990.72;2102508;28;20052;-64
2022/01/12 03:29:23;;;;;;;9.32;5.97;;;;;;;-148.81;100.00;67990.72;2094781;28;20711;-65
2022/01/12 03:30:36;;;;;;;10.20;6.72;;;;;;;-148.81;100.00;67990.72;2095154;28;20053;-64
2022/01/12 03:31:40;;;;;;;8.85;6.22;;;;;;;-148.81;100.00;67990.72;2095738;28;20052;-64
2022/01/12 03:32:49;;;;;;;10.23;6.00;;;;;;;-148.81;100.00;67990.72;2094511;28;20056;-63
2022/01/12 03:33:57;;;;;;;;;;;;;;;-148.81;100.00;67990.72;2095504;28;20434;-63
2022/01/12 03:35:22;;;;;;;9.13;6.05;;;;;;;-148.81;100.00;67990.72;2094821;28;19920;-63
2022/01/12 03:36:28;;;;;;;8.93;6.07;;;;;;;-148.81;100.00;67990.72;2096758;28;20052;-63
2022/01/12 03:37:42;;;;;;;9.50;6.43;;;;;;;-148.81;100.00;67990.72;2102762;28;20056;-63
2022/01/12 03:38:47;;;;;;;9.82;6.30;;;;;;;-148.81;100.00;67990.72;2097875;28;20052;-63
2022/01/12 03:39:52;;;;;;;9.40;5.82;;;;;;;-148.81;100.00;67990.72;2096130;28;20385;-63
2022/01/12 03:40:56;;;;;;;8.57;5.90;;;;;;;-148.81;100.00;67990.72;2096481;28;20451;-63
2022/01/12 03:42:01;;;;;;;9.70;6.38;;;;;;;-148.81;100.00;67990.72;2096426;28;20044;-63
2022/01/12 03:43:04;;;;;;;10.00;6.43;;;;;;;-148.81;100.00;67990.72;2096598;28;20049;-63
2022/01/12 03:44:11;;;;;;;9.95;6.13;;;;;;;-148.81;100.00;67990.72;2096025;28;20057;-63
2022/01/12 03:45:16;;;;;;;9.93;6.00;;;;;;;-148.81;100.00;67990.72;2104460;28;20047;-62
2022/01/12 03:46:23;;;;;;;8.95;6.28;;;;;;;-148.81;100.00;67990.72;2104442;28;20044;-63
2022/01/12 03:47:29;;;;;;;8.88;6.07;;;;;;;-148.81;100.00;67990.72;2105047;28;20456;-62
2022/01/12 03:48:32;;;;;;;8.75;5.88;;;;;;;-148.81;100.00;67990.72;2104513;28;20512;-62
2022/01/12 03:49:36;;;;;;;8.88;5.80;;;;;;;-148.81;100.00;67990.72;2104694;28;20569;-65
2022/01/12 03:50:39;;;;;;;10.50;6.45;;;;;;;-148.81;100.00;67990.72;2103913;28;20066;-63
2022/01/12 03:51:46;;;;;;;11.93;5.93;;;;;;;-148.81;100.00;67990.72;2095942;28;20059;-63
2022/01/12 03:52:50;;;;;;;8.07;5.95;;;;;;;-148.81;100.00;67990.72;2096656;28;20423;-64
2022/01/12 03:53:57;;;;;;;9.70;6.28;;;;;;;-148.81;100.00;67990.72;2096590;28;20044;-63
2022/01/12 03:55:00;;;;;;;8.88;6.32;;;;;;;-148.81;100.00;67990.72;2096859;28;20048;-64
2022/01/12 03:56:06;;;;;;;10.02;6.18;;;;;;;-148.81;100.00;67990.72;2095525;28;20040;-63
2022/01/12 03:57:11;;;;;;;9.40;6.07;;;;;;;-148.81;100.00;67990.72;2096071;28;20044;-63
2022/01/12 03:58:14;;;;;;;11.65;6.43;;;;;;;-148.81;100.00;67990.72;2104500;28;20059;-63
2022/01/12 03:59:19;;;;;;;8.10;5.80;;;;;;;-148.81;100.00;67990.72;2104622;28;20051;-63
2022/01/12 04:00:23;;;;;;;9.07;5.68;;;;;;;-148.81;100.00;67990.72;2104855;28;20526;-63
2022/01/12 04:01:27;;;;;;;9.93;5.60;;;;;;;-148.81;100.00;67990.72;2104056;28;20372;-63
2022/01/12 04:02:33;;;;;;;9.85;6.50;;;;;;;-148.81;100.00;67990.72;2096218;28;20083;-64
2022/01/12 04:03:44;;;;;;;9.63;5.95;;;;;;;-148.81;100.00;67990.72;2096219;28;20044;-62
2022/01/12 04:05:08;;;;;;;7.60;5.70;;;;;;;-148.81;100.00;67990.72;2103926;28;20597;-62
2022/01/12 04:08:56;;;;;;;9.32;5.82;;;;;;;-148.81;100.00;67990.72;2099270;28;20052;-63
2022/01/12 04:10:03;;;;;;;9.05;5.57;;;;;;;-148.81;100.00;67990.72;2097008;28;20051;-63
2022/01/12 04:11:08;;;;;;;9.60;5.80;;;;;;;-148.81;100.00;67990.72;2096000;28;20045;-62
2022/01/12 04:12:14;;;;;;;8.27;6.07;;;;;;;-148.81;100.00;67990.72;2096332;28;20068;-63
2022/01/12 04:13:21;;;;;;;8.48;6.13;;;;;;;-148.81;100.00;67990.72;2094907;28;20060;-64
2022/01/12 04:14:25;;;;;;;9.52;6.13;;;;;;;-148.81;100.00;67990.72;2096522;28;20904;-63
2022/01/12 04:15:29;;;;;;;8.73;5.60;;;;;;;-148.81;100.00;67990.72;2096148;28;20048;-62
2022/01/12 04:16:36;;;;;;;8.35;6.18;;;;;;;-148.81;100.00;67990.72;2096640;28;20060;-63
2022/01/12 04:17:40;;;;;;;9.35;5.60;;;;;;;-148.81;100.00;67990.72;2096308;28;20052;-63
2022/01/12 04:18:43;;;;;;;10.25;5.82;;;;;;;-148.81;100.00;67990.72;2095162;28;20049;-63
2022/01/12 04:19:49;;;;;;;7.65;5.28;;;;;;;-148.81;100.00;67990.72;2095701;28;20048;-65
2022/01/12 04:20:53;;;;;;;9.40;5.68;;;;;;;-148.81;100.00;67990.72;2096215;28;20523;-65
2022/01/12 04:22:07;;;;;;;8.85;6.05;;;;;;;-148.81;100.00;67990.72;2095847;28;20048;-65
2022/01/12 04:23:19;;;;;;;9.30;6.13;;;;;;;-148.81;100.00;67990.72;2096857;28;20278;-64
2022/01/12 04:24:26;;;;;;;8.18;5.88;;;;;;;-148.81;100.00;67990.72;2095089;28;20040;-65
2022/01/12 04:25:31;;;;;;;8.15;5.60;;;;;;;-148.81;100.00;67990.72;2095282;28;20570;-65
2022/01/12 04:26:36;;;;;;;9.48;5.40;;;;;;;-148.81;100.00;67990.72;2087045;28;20048;-64
2022/01/12 04:27:42;;;;;;;8.98;5.75;;;;;;;-148.81;100.00;67990.72;2095396;28;20067;-63
2022/01/12 04:28:46;;;;;;;8.50;5.40;;;;;;;-148.81;100.00;67990.72;2096302;28;20404;-63
2022/01/12 04:29:53;;;;;;;9.27;5.53;;;;;;;-148.81;100.00;67990.72;2095618;28;20451;-64
2022/01/12 04:31:03;;;;;;;18.83;5.68;;;;;;;-148.81;100.00;67990.72;2089035;28;20049;-64
2022/01/12 04:32:09;;;;;;;13.50;5.70;;;;;;;-148.81;100.00;67990.72;2088020;28;20053;-64
2022/01/12 04:33:17;;;;;;;9.52;5.72;;;;;;;-148.81;100.00;67990.72;2088440;28;20055;-63
2022/01/12 04:35:46;;;;;;;11.55;5.72;;;;;;;-148.81;100.00;67990.72;2095515;28;20114;-63
2022/01/12 04:36:50;;;;;;;10.18;5.88;;;;;;;-148.81;100.00;67990.72;2094870;28;20053;-63
2022/01/12 04:37:54;;;;;;;12.68;6.10;;;;;;;-148.81;100.00;67990.72;2087140;28;20045;-63
2022/01/12 04:40:22;;;;;;;9.30;5.65;;;;;;;-148.81;100.00;67990.72;2094182;28;20667;-65
2022/01/12 04:41:27;;;;;;;8.63;5.82;;;;;;;-148.81;100.00;67990.72;2095154;28;20052;-65
2022/01/12 04:42:31;;;;;;;11.95;5.32;;;;;;;-148.81;100.00;67990.72;2087594;28;20079;-65
2022/01/12 04:43:37;;;;;;;15.88;5.35;;;;;;;-148.81;100.00;67990.72;2097609;28;20056;-64
2022/01/12 04:44:44;;;;;;;10.38;5.97;;;;;;;-148.81;100.00;67990.72;2104239;28;20047;-64
2022/01/12 04:47:29;;;;;;;7.63;5.07;;;;;;;-148.81;100.00;67990.72;2083315;28;20055;-64
2022/01/12 04:48:37;;;;;;;9.30;5.65;;;;;;;-148.81;100.00;67990.72;2098346;28;20506;-63
2022/01/12 04:49:48;;;;;;;9.40;5.85;;;;;;;-148.81;100.00;67990.72;2103804;28;20641;-63
2022/01/12 04:50:53;;;;;;;8.23;5.80;;;;;;;-148.81;100.00;67990.72;2104444;28;20519;-64
2022/01/12 04:51:58;;;;;;;10.65;5.63;;;;;;;-148.81;100.00;67990.72;2104044;28;20578;-64
2022/01/12 04:53:01;;;;;;;7.90;5.55;;;;;;;-148.81;100.00;67990.72;2103603;28;20633;-65
2022/01/12 04:54:07;;;;;;;7.82;5.15;;;;;;;-148.81;100.00;67990.72;2094926;28;20045;-65
2022/01/12 04:55:14;;;;;;;8.85;5.22;;;;;;;-148.81;100.00;67990.72;2103854;28;20044;-70
2022/01/12 04:56:25;;;;;;;7.88;5.57;;;;;;;-148.81;100.00;67990.72;2095906;28;20135;-65
2022/01/12 04:57:29;;;;;;;9.27;5.00;;;;;;;-148.81;100.00;67990.72;2103400;28;20059;-64
2022/01/12 04:58:32;;;;;;;8.23;5.75;;;;;;;-148.81;100.00;67990.72;2104358;28;20055;-64
2022/01/12 04:59:47;;;;;;;9.52;5.50;;;;;;;-148.81;100.00;67990.72;2103735;28;20052;-65
2022/01/12 05:00:52;;;;;;;9.00;5.47;;;;;;;-148.81;100.00;67990.72;2097404;28;20052;-65
2022/01/12 05:06:18;;;;;;;12.15;5.45;;;;;;;-148.81;100.00;67990.72;2095491;28;20049;-66
2022/01/12 05:06:36;;;;;;;9.90;5.43;;;;;;;-148.81;100.00;67990.72;2104096;28;20056;-66
2022/01/12 05:07:46;;;;;;;7.80;5.32;;;;;;;-148.81;100.00;67990.72;2099190;28;20044;-65
2022/01/12 05:09:03;;;;;;;7.00;4.95;;;;;;;-148.81;100.00;67990.72;2096444;28;20041;-63
2022/01/12 05:13:00;;;;;;;8.85;5.60;;;;;;;-148.81;100.00;67990.72;2098985;28;20047;-65
2022/01/12 05:14:03;;;;;;;6.97;5.10;;;;;;;-148.81;100.00;67990.72;2096031;28;20047;-65
2022/01/12 05:15:16;;;;;;;10.70;5.55;;;;;;;-148.81;100.00;67990.72;2095350;28;20044;-67
2022/01/12 05:16:21;;;;;;;7.53;4.88;;;;;;;-148.81;100.00;67990.72;2103809;28;20535;-66
2022/01/12 05:17:24;;;;;;;7.88;5.53;;;;;;;-148.81;100.00;67990.72;2103536;28;20246;-67
2022/01/12 05:18:28;;;;;;;8.88;5.50;;;;;;;-148.81;100.00;67990.72;2094852;28;20056;-67
2022/01/12 05:19:33;;;;;;;8.07;5.20;;;;;;;-148.81;100.00;67990.72;2095689;28;20063;-66
2022/01/12 05:20:40;;;;;;;7.65;5.45;;;;;;;-148.81;100.00;67990.72;2103544;28;20067;-66
2022/01/12 05:21:44;;;;;;;9.60;5.55;;;;;;;-148.81;100.00;67990.72;2103777;28;20055;-65
2022/01/12 05:22:49;;;;;;;7.90;5.43;;;;;;;-148.81;100.00;67990.72;2103164;28;20075;-66
2022/01/12 05:23:51;;;;;;;8.88;5.03;;;;;;;-148.81;100.00;67990.72;2103424;28;20052;-66
2022/01/12 05:24:56;;;;;;;7.07;5.28;;;;;;;-148.81;100.00;67990.72;2095080;28;20052;-66
2022/01/12 05:25:59;;;;;;;8.05;5.25;;;;;;;-148.81;100.00;67990.72;2104002;28;20044;-66
2022/01/12 05:27:07;;;;;;;8.82;5.47;;;;;;;-148.81;100.00;67990.72;2103487;28;20048;-66
2022/01/12 05:28:12;;;;;;;8.15;5.53;;;;;;;-148.81;100.00;67990.72;2095972;28;20463;-66
2022/01/12 05:29:17;;;;;;;9.25;5.45;;;;;;;-148.81;100.00;67990.72;2095506;28;20052;-64
2022/01/12 05:30:22;;;;;;;9.20;5.40;;;;;;;-148.81;100.00;67990.72;2103293;28;20582;-65
2022/01/12 05:31:26;;;;;;;8.65;5.65;;;;;;;-148.81;100.00;67990.72;2102976;28;20792;-63
2022/01/12 05:32:32;;;;;;;9.55;5.70;;;;;;;-148.81;100.00;67990.72;2095666;28;20119;-63
2022/01/12 05:33:45;;;;;;;8.93;5.20;;;;;;;-148.81;100.00;67990.72;2095919;28;20064;-66
2022/01/12 05:34:47;;;;;;;8.32;5.35;;;;;;;-148.81;100.00;67990.72;2096138;28;20044;-65
2022/01/12 05:35:54;;;;;;;8.35;5.68;;;;;;;-148.81;100.00;67990.72;2095851;28;20056;-64
2022/01/12 05:36:58;;;;;;;7.43;5.43;;;;;;;-148.81;100.00;67990.72;2095988;28;20059;-64
2022/01/12 05:38:08;;;;;;;9.40;5.60;;;;;;;-148.81;100.00;67990.72;2094599;28;20059;-63
2022/01/12 05:39:10;;;;;;;8.48;5.65;;;;;;;-148.81;100.00;67990.72;2095811;28;20468;-65
2022/01/12 05:40:20;;;;;;;11.35;5.82;;;;;;;-148.81;100.00;67990.72;2095540;28;20051;-69
2022/01/12 05:41:23;;;;;;;11.10;6.03;;;;;;;-148.81;100.00;67990.72;2095579;28;20048;-67
2022/01/12 05:42:32;;;;;;;8.70;5.10;;;;;;;-148.81;100.00;67990.72;2095627;28;20060;-66
2022/01/12 05:43:37;;;;;;;10.07;4.97;;;;;;;-148.81;100.00;67990.72;2095617;28;20440;-67
2022/01/12 05:44:42;;;;;;;11.95;4.55;;;;;;;-148.81;100.00;67990.72;2095286;28;20059;-66
2022/01/12 05:45:48;;;;;;;;;;;;;;;-148.81;100.00;67990.72;2103777;28;20056;-67
2022/01/12 05:46:54;;;;;;;16.20;5.03;;;;;;;-148.81;100.00;67990.72;2103195;28;20390;-66
2022/01/12 05:49:36;;;;;;;13.88;5.63;;;;;;;-148.81;100.00;67990.72;2097225;28;20075;-66
2022/01/12 05:50:46;;;;;;;13.23;5.75;;;;;;;-148.81;100.00;67990.72;2098339;28;20056;-67
2022/01/12 05:51:54;;;;;;;15.05;5.72;;;;;;;-148.81;100.00;67990.72;2095740;28;20649;-69
2022/01/12 05:53:00;;;;;;;26.10;6.78;;;;;;;-148.81;100.00;67990.72;2094121;28;20067;-67
2022/01/12 05:54:07;;;;;;;19.63;5.70;;;;;;;-148.81;100.00;67990.72;2094416;28;20095;-66
2022/01/12 05:55:13;;;;;;;19.15;5.57;;;;;;;-148.81;100.00;67990.72;2094094;28;20052;-67
2022/01/12 05:56:19;;;;;;;23.95;5.38;;;;;;;-148.81;100.00;67990.72;2102247;28;20052;-66
2022/01/12 05:57:26;;;;;;;24.63;6.03;;;;;;;-148.81;100.00;67990.72;2094342;28;20049;-65
2022/01/12 05:58:38;;;;;;;16.58;5.97;;;;;;;-148.81;100.00;67990.72;2094898;28;20048;-66
2022/01/12 05:59:41;;;;;;;22.15;5.72;;;;;;;-148.81;100.00;67990.72;2086073;28;20057;-65
2022/01/12 06:00:46;;;;;;;16.20;5.70;;;;;;;-148.81;100.00;67990.72;2092780;28;20349;-66
2022/01/12 06:01:50;;;;;;;24.95;5.72;;;;;;;-148.81;100.00;67990.72;2102486;28;20055;-67
2022/01/12 06:02:56;;;;;;;14.98;5.05;;;;;;;-148.81;100.00;67990.72;2094359;28;20170;-68
2022/01/12 06:04:02;;;;;;;18.25;5.45;;;;;;;-148.81;100.00;67990.72;2094931;28;20044;-68
2022/01/12 06:05:07;;;;;;;16.50;4.97;;;;;;;-148.81;100.00;67990.72;2093842;28;20056;-65
2022/01/12 06:06:13;;;;;;;14.15;4.97;;;;;;;-148.81;100.00;67990.72;2095556;28;20061;-69
2022/01/12 06:07:21;;;;;;;22.50;5.50;;;;;;;-148.81;100.00;67990.72;2094050;28;20083;-68